ADDS TAF Data INFO
IDs: Format: Raw Decoded Include METARs

Data at: 1025 UTC 16 Aug 2018

KAMA 161023Z AUTO 22010KT 10SM FEW085 BKN110 21/14 A3008 RMK AO2 WSHFT 1003 RAE0954 P0000 T02060144

KAMA 160551Z 1606/1706 20010KT P6SM SCT070 BKN250
  TEMPO 1606/1610 VRB20G35KT 5SM TSRA BKN080CB
  FM161500 23010KT P6SM SCT250
  FM170000 18010KT P6SM BKN150